createdAt,value
2018-11-06T07:39:11.371Z,23.85
2018-11-06T07:41:40.044Z,22.55
2018-11-06T07:44:10.356Z,21.35
2018-11-06T07:46:39.104Z,22.02
2018-11-06T07:49:07.525Z,21.65
2018-11-06T07:51:35.883Z,21.93
2018-11-06T07:54:04.056Z,20.25
2018-11-06T07:56:32.377Z,22.40
2018-11-06T07:59:00.519Z,19.42
2018-11-06T08:01:28.697Z,21.52
2018-11-06T08:03:56.964Z,21.48
2018-11-06T08:06:25.261Z,19.65
2018-11-06T08:08:53.364Z,22.32
2018-11-06T08:11:21.544Z,23.50
2018-11-06T08:13:49.682Z,22.48
2018-11-06T08:16:17.848Z,19.37
2018-11-06T08:18:45.992Z,21.82
2018-11-06T08:21:14.144Z,20.75
2018-11-06T08:23:42.312Z,20.35
2018-11-06T08:26:10.481Z,21.77
2018-11-06T08:28:38.628Z,19.50
2018-11-06T08:31:07.025Z,20.48
2018-11-06T08:33:34.951Z,22.17
2018-11-06T08:36:03.233Z,21.70
2018-11-06T08:38:31.417Z,20.37
2018-11-06T08:40:59.550Z,19.35
2018-11-06T08:43:27.707Z,18.27
2018-11-06T08:45:55.873Z,20.55
2018-11-06T08:48:24.025Z,22.27
2018-11-06T08:50:52.228Z,19.98
2018-11-06T08:53:20.439Z,21.60
2018-11-06T08:55:48.584Z,20.48
2018-11-06T08:58:16.726Z,20.35
2018-11-06T09:00:45.112Z,21.65
2018-11-06T09:03:13.253Z,23.65
2018-11-06T09:05:41.417Z,22.22
2018-11-06T09:08:10.113Z,22.17
2018-11-06T09:10:38.272Z,24.35
2018-11-06T09:13:06.601Z,25.72
2018-11-06T09:15:34.739Z,27.40
2018-11-06T09:18:02.892Z,25.90
2018-11-06T09:20:31.148Z,25.23
2018-11-06T09:22:59.326Z,23.62
2018-11-06T09:25:27.463Z,27.05
2018-11-06T09:27:55.593Z,22.25
2018-11-06T09:30:23.739Z,25.62
2018-11-06T09:32:51.925Z,23.50
2018-11-06T09:35:20.079Z,23.83
2018-11-06T09:37:48.229Z,22.42
2018-11-06T09:40:17.704Z,24.57
2018-11-06T09:42:45.868Z,24.05
2018-11-06T09:45:14.242Z,25.68
2018-11-06T09:47:42.397Z,23.55
2018-11-06T09:50:12.615Z,22.67
2018-11-06T09:52:41.163Z,24.15
2018-11-06T09:55:09.328Z,24.50
2018-11-06T09:57:37.500Z,23.00
2018-11-06T10:00:07.792Z,22.00
2018-11-06T10:02:35.976Z,21.77
2018-11-06T10:05:04.607Z,21.75
2018-11-06T10:07:32.790Z,21.35
2018-11-06T10:10:00.884Z,22.15
2018-11-06T10:12:29.066Z,20.52
2018-11-06T10:14:57.498Z,20.17
2018-11-06T10:17:25.644Z,21.45
2018-11-06T10:19:53.959Z,20.80
2018-11-06T10:22:22.107Z,18.17
2018-11-06T10:24:50.268Z,21.45
2018-11-06T10:27:18.425Z,17.95
2018-11-06T10:29:46.575Z,20.57
2018-11-06T10:32:14.721Z,20.37
2018-11-06T10:34:42.869Z,18.55
2018-11-06T10:37:11.009Z,19.32
2018-11-06T10:39:39.213Z,18.95
2018-11-06T10:42:07.375Z,17.62
2018-11-06T10:44:35.524Z,19.50
2018-11-06T10:47:03.742Z,16.93
2018-11-06T10:49:31.884Z,20.10
2018-11-06T10:52:00.033Z,17.52
2018-11-06T10:54:28.457Z,18.92
2018-11-06T10:56:56.868Z,20.08
2018-11-06T10:59:25.441Z,19.75
2018-11-06T11:01:59.264Z,17.52
2018-11-06T11:04:28.445Z,18.98
2018-11-06T11:06:56.964Z,19.73
2018-11-06T11:09:32.269Z,19.42
2018-11-06T11:12:02.101Z,18.32
2018-11-06T11:14:30.686Z,19.98
2018-11-06T11:16:59.121Z,22.93
2018-11-06T11:19:28.156Z,21.12
2018-11-06T11:21:56.602Z,17.85
2018-11-06T11:24:25.104Z,19.90
2018-11-06T11:26:53.501Z,19.10
2018-11-06T11:29:21.983Z,16.48
2018-11-06T11:31:50.377Z,17.75
2018-11-06T11:34:18.789Z,17.30
2018-11-06T11:36:47.289Z,17.35
2018-11-06T11:39:15.852Z,17.95
2018-11-06T11:41:44.268Z,16.00
2018-11-06T11:44:12.661Z,15.23
2018-11-06T11:46:41.532Z,16.93
2018-11-06T11:49:10.053Z,16.32
2018-11-06T11:51:38.731Z,16.00
2018-11-06T11:54:07.305Z,16.12
2018-11-06T11:56:35.821Z,16.67
2018-11-06T11:59:04.238Z,16.93
2018-11-06T12:01:32.853Z,16.35
2018-11-06T12:04:01.456Z,18.25
2018-11-06T12:06:29.889Z,17.35
2018-11-06T12:08:58.403Z,19.00
2018-11-06T12:11:26.785Z,21.35
2018-11-06T12:13:55.184Z,21.30
2018-11-06T12:16:23.740Z,19.75
2018-11-06T12:18:52.152Z,19.95
2018-11-06T12:21:20.560Z,20.35
2018-11-06T12:23:49.086Z,19.70
2018-11-06T12:26:17.496Z,20.68
2018-11-06T12:28:45.895Z,17.17
2018-11-06T12:31:14.285Z,17.73
2018-11-06T12:33:42.696Z,17.25
2018-11-06T12:36:11.184Z,18.50
2018-11-06T12:38:39.617Z,18.65
2018-11-06T12:41:08.168Z,18.62
2018-11-06T12:43:37.241Z,22.52
2018-11-06T12:46:06.143Z,20.62
2018-11-06T12:48:34.552Z,21.48
2018-11-06T12:51:03.096Z,19.48
2018-11-06T12:53:31.481Z,20.62
2018-11-06T12:55:59.947Z,24.30
2018-11-06T12:58:28.432Z,21.27
2018-11-06T13:00:56.813Z,20.90
2018-11-06T13:03:25.264Z,26.02
2018-11-06T13:05:53.656Z,21.57
2018-11-06T13:08:22.041Z,21.65
2018-11-06T13:10:50.442Z,25.72
2018-11-06T13:13:18.846Z,22.07
2018-11-06T13:15:47.314Z,22.15
2018-11-06T13:18:16.357Z,23.25
2018-11-06T13:20:45.396Z,22.58
2018-11-06T13:23:13.785Z,23.57
2018-11-06T13:25:42.355Z,23.10
2018-11-06T13:28:10.692Z,21.27
2018-11-06T13:30:39.194Z,25.35
2018-11-06T13:33:07.683Z,23.25
2018-11-06T13:35:36.216Z,21.35
2018-11-06T13:38:04.648Z,25.72
2018-11-06T13:40:33.085Z,23.02
2018-11-06T13:43:01.629Z,23.87
2018-11-06T13:45:30.119Z,23.22
2018-11-06T13:47:58.438Z,23.70
2018-11-06T13:50:26.841Z,25.55
2018-11-06T13:52:56.436Z,24.32
2018-11-06T13:55:24.867Z,26.30
2018-11-06T13:57:53.276Z,23.95
2018-11-06T14:00:22.145Z,27.67
2018-11-06T14:02:50.590Z,24.18
2018-11-06T14:05:19.310Z,28.50
2018-11-06T14:07:47.688Z,27.67
2018-11-06T14:10:16.403Z,26.42
2018-11-06T14:12:45.342Z,27.58
2018-11-06T14:15:13.872Z,25.32
2018-11-06T14:17:42.260Z,31.87
2018-11-06T14:20:12.593Z,29.80
2018-11-06T14:22:41.009Z,24.65
2018-11-06T14:25:09.591Z,27.42
2018-11-06T14:27:38.216Z,28.32
2018-11-06T14:30:09.996Z,28.35
2018-11-06T14:32:38.756Z,26.55
2018-11-06T14:35:08.644Z,24.85
2018-11-06T14:37:37.084Z,26.45
2018-11-06T14:40:06.842Z,30.25
2018-11-06T14:42:35.418Z,25.25
2018-11-06T14:45:04.098Z,24.72
2018-11-06T14:47:32.516Z,25.57
2018-11-06T14:50:01.128Z,27.50
2018-11-06T14:52:29.575Z,29.98
2018-11-06T14:54:57.976Z,23.75
2018-11-06T14:57:26.377Z,26.02
2018-11-06T14:59:54.958Z,24.52
2018-11-06T15:02:23.484Z,26.17
2018-11-06T15:04:52.777Z,23.80
2018-11-06T15:07:21.232Z,24.70
2018-11-06T15:09:49.641Z,27.55
2018-11-06T15:12:18.100Z,23.55
2018-11-06T15:14:46.811Z,23.73
2018-11-06T15:17:15.325Z,23.27
2018-11-06T15:19:43.757Z,27.45
2018-11-06T15:22:12.269Z,24.63
2018-11-06T15:24:40.685Z,28.00
2018-11-06T15:27:09.416Z,23.45
2018-11-06T15:29:37.848Z,24.50
2018-11-06T15:32:06.407Z,24.65
2018-11-06T15:34:35.236Z,23.22
2018-11-06T15:37:03.725Z,23.30
2018-11-06T15:39:32.138Z,24.40
2018-11-06T15:42:00.739Z,28.05
2018-11-06T15:44:29.005Z,25.60
2018-11-06T15:46:57.409Z,25.92
2018-11-06T15:49:25.802Z,23.83
2018-11-06T15:51:54.347Z,29.23
2018-11-06T15:54:22.881Z,27.25
2018-11-06T15:56:51.378Z,27.60
2018-11-06T15:59:19.907Z,27.20
2018-11-06T16:01:48.508Z,25.05
2018-11-06T16:04:17.015Z,32.90
2018-11-06T16:06:45.457Z,25.70
2018-11-06T16:09:13.852Z,36.08
2018-11-06T16:11:42.405Z,28.98
2018-11-06T16:14:10.981Z,28.87
2018-11-06T16:16:39.496Z,28.83
2018-11-06T16:19:08.015Z,28.27
2018-11-06T16:21:36.550Z,29.77
2018-11-06T16:24:05.216Z,26.42
2018-11-06T16:26:33.681Z,27.25
2018-11-06T16:29:02.117Z,26.80
2018-11-06T16:31:30.645Z,27.45
2018-11-06T16:33:59.633Z,29.23
2018-11-06T16:36:28.204Z,27.55
2018-11-06T16:38:56.689Z,28.83
2018-11-06T16:41:25.267Z,27.93
2018-11-06T16:43:53.696Z,28.92
2018-11-06T16:46:22.248Z,27.40
2018-11-06T16:48:50.872Z,28.70
2018-11-06T16:51:19.429Z,33.38
2018-11-06T16:53:47.926Z,30.48
2018-11-06T16:56:16.492Z,30.05
2018-11-06T16:58:45.133Z,28.60
2018-11-06T17:01:13.915Z,31.57
2018-11-06T17:03:42.253Z,29.05
2018-11-06T17:06:14.937Z,31.17
2018-11-06T17:08:43.937Z,31.23
2018-11-06T17:11:12.481Z,31.50
2018-11-06T17:13:41.008Z,32.13
2018-11-06T17:16:10.099Z,33.65
2018-11-06T17:18:38.497Z,33.67
2018-11-06T17:21:07.042Z,28.12
2018-11-06T17:23:35.604Z,31.52
2018-11-06T17:26:04.038Z,30.45
2018-11-06T17:28:33.217Z,31.27
2018-11-06T17:31:01.677Z,31.17
2018-11-06T17:33:30.100Z,29.50
2018-11-06T17:35:58.685Z,31.82
2018-11-06T17:38:27.279Z,32.30
2018-11-06T17:40:55.907Z,30.10
2018-11-06T17:43:24.648Z,32.28
2018-11-06T17:45:53.490Z,31.05
2018-11-06T17:48:22.029Z,33.60
2018-11-06T17:50:50.554Z,32.63
2018-11-06T17:53:19.032Z,32.63
2018-11-06T17:55:47.561Z,34.85
2018-11-06T17:58:16.147Z,32.23
2018-11-06T18:00:44.719Z,32.88
2018-11-06T18:03:13.441Z,34.08
2018-11-06T18:05:41.890Z,37.38
2018-11-06T18:08:10.457Z,33.55
2018-11-06T18:10:38.964Z,35.58
2018-11-06T18:13:07.673Z,40.38
2018-11-06T18:15:36.059Z,34.85
2018-11-06T18:18:04.782Z,34.55
2018-11-06T18:20:33.903Z,33.08
2018-11-06T18:23:02.355Z,36.30
2018-11-06T18:25:30.907Z,35.00
2018-11-06T18:27:59.325Z,39.73
2018-11-06T18:30:28.850Z,42.00
2018-11-06T18:32:57.348Z,39.20
2018-11-06T18:35:25.808Z,36.83
2018-11-06T18:37:54.452Z,38.30
2018-11-06T18:40:23.004Z,40.08
2018-11-06T18:42:51.982Z,40.50
2018-11-06T18:45:20.587Z,33.65
2018-11-06T18:47:49.209Z,40.10
2018-11-06T18:50:19.370Z,32.73
2018-11-06T18:52:48.995Z,37.13
2018-11-06T18:55:18.307Z,38.53
2018-11-06T18:57:46.897Z,39.18
2018-11-06T19:00:16.695Z,39.23
2018-11-06T19:02:46.372Z,38.67
2018-11-06T19:05:15.392Z,37.83
2018-11-06T19:07:43.847Z,36.70
2018-11-06T19:10:13.489Z,39.08
2018-11-06T19:12:42.156Z,36.95
2018-11-06T19:15:14.624Z,34.70
2018-11-06T19:17:43.848Z,43.73
2018-11-06T19:20:12.965Z,38.30
2018-11-06T19:22:41.396Z,37.63
2018-11-06T19:25:10.910Z,39.08
2018-11-06T19:27:39.823Z,36.73
2018-11-06T19:30:11.082Z,39.92
2018-11-06T19:32:39.941Z,41.05
2018-11-06T19:35:08.765Z,42.43
2018-11-06T19:37:37.664Z,38.85
2018-11-06T19:40:08.189Z,35.92
2018-11-06T19:42:37.060Z,40.03
2018-11-06T19:45:06.150Z,39.98
2018-11-06T19:47:34.710Z,40.67
2018-11-06T19:50:03.424Z,41.20
2018-11-06T19:52:32.077Z,43.13
2018-11-06T19:55:00.670Z,36.68
2018-11-06T19:57:29.288Z,39.95
2018-11-06T19:59:57.841Z,43.50
2018-11-06T20:02:26.307Z,41.92
2018-11-06T20:04:54.790Z,41.48
2018-11-06T20:07:23.268Z,40.48
2018-11-06T20:09:51.681Z,38.05
2018-11-06T20:12:20.953Z,38.55
2018-11-06T20:14:49.376Z,41.15
2018-11-06T20:17:17.928Z,38.95
2018-11-06T20:19:46.347Z,38.53
2018-11-06T20:22:14.969Z,39.00
2018-11-06T20:24:43.432Z,42.98
2018-11-06T20:27:11.966Z,38.58
2018-11-06T20:29:40.604Z,37.17
2018-11-06T20:32:09.250Z,42.48
2018-11-06T20:34:37.737Z,40.80
2018-11-06T20:37:06.614Z,37.17
2018-11-06T20:39:34.883Z,37.40
2018-11-06T20:42:03.091Z,42.23
2018-11-06T20:44:31.254Z,38.73
2018-11-06T20:46:59.437Z,41.63
2018-11-06T20:49:27.696Z,39.53
2018-11-06T20:51:56.095Z,39.53
2018-11-06T20:54:24.335Z,36.88
2018-11-06T20:56:52.608Z,39.67
2018-11-06T20:59:20.772Z,41.68
2018-11-06T21:01:48.969Z,41.13
2018-11-06T21:04:17.170Z,40.23
2018-11-06T21:06:45.715Z,41.88
2018-11-06T21:09:14.199Z,42.05
2018-11-06T21:11:42.703Z,42.80
2018-11-06T21:14:11.216Z,40.65
2018-11-06T21:16:39.666Z,40.40
2018-11-06T21:19:08.061Z,40.95
2018-11-06T21:21:37.565Z,40.40
2018-11-06T21:24:06.246Z,38.98
2018-11-06T21:26:34.915Z,39.83
2018-11-06T21:29:03.829Z,45.80
2018-11-06T21:31:32.413Z,46.28
2018-11-06T21:34:00.995Z,43.23
2018-11-06T21:36:29.568Z,41.75
2018-11-06T21:38:58.077Z,42.55
2018-11-06T21:41:26.484Z,46.10
2018-11-06T21:43:54.927Z,41.95
2018-11-06T21:46:23.368Z,41.68
2018-11-06T21:48:51.766Z,40.75
2018-11-06T21:51:20.233Z,42.62
2018-11-06T21:53:49.243Z,42.20
2018-11-06T21:56:17.690Z,47.17
2018-11-06T21:58:46.311Z,41.53
2018-11-06T22:01:14.797Z,44.67
2018-11-06T22:03:43.329Z,47.78
2018-11-06T22:06:11.787Z,47.48
2018-11-06T22:08:40.209Z,44.95
2018-11-06T22:11:08.800Z,45.65
2018-11-06T22:13:43.960Z,45.77
2018-11-06T22:16:12.365Z,46.70
2018-11-06T22:18:41.516Z,47.40
2018-11-06T22:21:09.981Z,47.40
2018-11-06T22:23:38.913Z,47.35
2018-11-06T22:26:07.486Z,43.05
2018-11-06T22:28:35.953Z,40.85
2018-11-06T22:31:04.492Z,46.37
2018-11-06T22:33:33.054Z,50.33
2018-11-06T22:36:01.580Z,48.63
2018-11-06T22:38:30.625Z,49.10
2018-11-06T22:40:59.238Z,43.80
2018-11-06T22:43:28.260Z,43.00
2018-11-06T22:45:56.656Z,44.08
2018-11-06T22:48:25.114Z,40.98
2018-11-06T22:50:53.629Z,42.03
2018-11-06T22:53:22.101Z,42.90
2018-11-06T22:55:51.253Z,45.25
2018-11-06T22:58:19.764Z,39.42
2018-11-06T23:00:53.529Z,41.50
2018-11-06T23:03:22.289Z,41.02
2018-11-06T23:05:50.772Z,43.00
2018-11-06T23:08:24.712Z,39.93
2018-11-06T23:10:53.772Z,40.07
2018-11-06T23:13:22.285Z,39.27
2018-11-06T23:15:50.838Z,42.05
2018-11-06T23:18:19.541Z,43.80
2018-11-06T23:20:47.924Z,41.28
2018-11-06T23:23:16.342Z,41.33
2018-11-06T23:25:44.784Z,39.73
2018-11-06T23:28:13.222Z,41.13
2018-11-06T23:30:41.769Z,42.53
2018-11-06T23:33:10.569Z,38.98
2018-11-06T23:35:39.018Z,38.83
2018-11-06T23:38:07.568Z,39.90
2018-11-06T23:40:35.961Z,40.92
2018-11-06T23:43:04.850Z,42.35
2018-11-06T23:45:33.233Z,42.63
2018-11-06T23:48:01.637Z,44.30
2018-11-06T23:50:30.210Z,43.52
2018-11-06T23:52:58.627Z,42.08
2018-11-06T23:55:27.036Z,39.63
2018-11-06T23:57:55.436Z,37.73
